This is the latest recevied weather packets stored in our database for station/object OK5TVR-5. If no packets are shown the sender has not sent any weather packets the latest 10 day(s).
| Time | Temp. | Humidity | Pressure | Rain* | Wind** | Luminosity | Snow |
|---|---|---|---|---|---|---|---|
| 1788345440 | 24.44° C | 46% | 1013.4 hPa | 0 mm | - | 70 W/m² | - |
| 1788344540 | 21.67° C | 50% | 1013.8 hPa | 0 mm | - | 300 W/m² | - |
| 1788343640 | 22.22° C | 50% | 1014 hPa | 0 mm | - | 251 W/m² | - |
| 1788342740 | 23.33° C | 48% | 1013.9 hPa | 0 mm | - | 239 W/m² | - |
| 1788341840 | 23.33° C | 49% | 1013.9 hPa | 0 mm | - | 193 W/m² | - |
| 1788341839 | 23.33° C | 49% | - | 0 mm | - | 193 W/m² | - |
| 1788340940 | 21.67° C | 53% | 1014.2 hPa | 0 mm | - | 242 W/m² | - |
| 1788340940 | 21.67° C | 53% | 1014.2 hPa | 0 mm | - | 242 W/m² | - |
| 1788340040 | 21.67° C | 56% | 1014.2 hPa | 0 mm | - | 197 W/m² | - |
| 1788339140 | 20.56° C | 59% | 1014.6 hPa | 0 mm | - | 124 W/m² | - |
| 1788338240 | 21.11° C | 59% | 1014.3 hPa | 0 mm | - | 214 W/m² | - |
| 1788337340 | 18.89° C | 66% | 1014.6 hPa | 0 mm | - | 163 W/m² | - |
| 1788336440 | 18.33° C | 67% | 1014.7 hPa | 0 mm | - | 168 W/m² | - |
| 1788335540 | 17.22° C | 69% | 1014.8 hPa | 0 mm | - | 115 W/m² | - |
| 1788334641 | 16.11° C | 75% | 1015.1 hPa | 0 mm | - | 93 W/m² | - |
| 1788334639 | 16.11° C | 75% | 1015.1 hPa | 0 mm | - | 93 W/m² | - |
| 1788333740 | 16.11° C | 73% | 1015.2 hPa | 0 mm | - | 80 W/m² | - |
| 1788332840 | 15.56° C | 72% | 1015.1 hPa | 0 mm | - | 79 W/m² | - |
| 1788332839 | 15.56° C | 72% | 1015.1 hPa | 0 mm | - | 79 W/m² | - |
| 1788331940 | 15° C | 75% | 1015.1 hPa | 0 mm | - | 62 W/m² | - |
| 1788331040 | 13.89° C | 81% | 1015.5 hPa | 0 mm | - | 51 W/m² | - |
| 1788330140 | 13.33° C | 83% | 1015.9 hPa | 0 mm | - | 41 W/m² | - |
| 1788329240 | 12.78° C | 85% | 1015.9 hPa | 0 mm | - | 33 W/m² | - |
| 1788328340 | 12.22° C | 85% | 1015.8 hPa | 0 mm | - | 28 W/m² | - |
| 1788327440 | 11.11° C | 86% | 1016 hPa | 0 mm | - | 23 W/m² | - |
* Rain latest hour (hover to see other rain measurements)
** Current wind speed in m/s (hover to see current wind gust speed)